createdAt,value
2023-04-11T00:01:50.057Z,9.50
2023-04-11T00:04:20.704Z,9.00
2023-04-11T00:06:49.234Z,10.50
2023-04-11T00:09:17.824Z,10.00
2023-04-11T00:11:48.084Z,8.00
2023-04-11T00:14:17.587Z,9.00
2023-04-11T00:16:49.774Z,8.75
2023-04-11T00:19:17.938Z,9.00
2023-04-11T00:21:46.363Z,8.00
2023-04-11T00:24:14.268Z,8.75
2023-04-11T00:26:42.203Z,8.00
2023-04-11T00:29:11.536Z,9.25
2023-04-11T00:31:39.519Z,7.75
2023-04-11T00:34:07.481Z,7.25
2023-04-11T00:36:35.523Z,7.00
2023-04-11T00:39:04.073Z,8.00
2023-04-11T00:41:31.982Z,6.50
2023-04-11T00:44:00.580Z,5.50
2023-04-11T00:46:30.181Z,6.75
2023-04-11T00:48:58.592Z,7.00
2023-04-11T00:51:26.659Z,5.75
2023-04-11T00:53:54.577Z,6.00
2023-04-11T00:56:23.187Z,6.50
2023-04-11T00:58:51.378Z,5.00
2023-04-11T01:01:20.061Z,5.50
2023-04-11T01:03:49.585Z,6.00
2023-04-11T01:06:19.102Z,6.00
2023-04-11T01:08:47.336Z,6.00
2023-04-11T01:11:16.343Z,5.00
2023-04-11T01:13:44.261Z,5.00
2023-04-11T01:16:12.280Z,5.00
2023-04-11T01:18:40.488Z,5.50
2023-04-11T01:21:10.026Z,5.50
2023-04-11T01:23:39.373Z,6.00
2023-04-11T01:26:07.719Z,5.00
2023-04-11T01:28:35.899Z,5.00
2023-04-11T01:31:03.851Z,4.50
2023-04-11T01:33:31.871Z,5.00
2023-04-11T01:36:00.381Z,5.00
2023-04-11T01:38:28.611Z,4.00
2023-04-11T01:40:57.903Z,4.00
2023-04-11T01:43:25.812Z,4.25
2023-04-11T01:45:54.033Z,3.50
2023-04-11T01:48:22.271Z,4.75
2023-04-11T01:50:51.046Z,4.00
2023-04-11T01:53:19.010Z,5.00
2023-04-11T01:55:46.888Z,5.00
2023-04-11T01:58:16.452Z,4.00
2023-04-11T02:00:44.433Z,4.50
2023-04-11T02:03:12.431Z,4.00
2023-04-11T02:05:40.592Z,4.50
2023-04-11T02:08:08.808Z,4.00
2023-04-11T02:10:36.691Z,3.00
2023-04-11T02:13:04.598Z,5.00
2023-04-11T02:15:34.031Z,3.00
2023-04-11T02:18:02.317Z,3.00
2023-04-11T02:20:30.274Z,2.50
2023-04-11T02:22:58.691Z,3.75
2023-04-11T02:25:26.550Z,3.75
2023-04-11T02:27:54.463Z,3.25
2023-04-11T02:30:22.413Z,3.00
2023-04-11T02:32:51.663Z,3.00
2023-04-11T02:35:20.106Z,4.00
2023-04-11T02:37:48.297Z,3.00
2023-04-11T02:40:16.287Z,4.00
2023-04-11T02:42:44.675Z,3.00
2023-04-11T02:45:12.878Z,3.00
2023-04-11T02:47:42.192Z,3.25
2023-04-11T02:50:12.199Z,3.00
2023-04-11T02:52:42.270Z,3.25
2023-04-11T02:55:10.752Z,3.00
2023-04-11T02:57:39.256Z,3.50
2023-04-11T03:00:10.440Z,3.25
2023-04-11T03:02:38.484Z,2.75
2023-04-11T03:05:07.491Z,3.00
2023-04-11T03:07:38.504Z,3.00
2023-04-11T03:10:07.607Z,3.00
2023-04-11T03:12:35.563Z,3.00
2023-04-11T03:15:03.574Z,3.00
2023-04-11T03:17:31.757Z,3.75
2023-04-11T03:19:59.662Z,2.75
2023-04-11T03:22:27.589Z,3.00
2023-04-11T03:24:56.821Z,3.00
2023-04-11T03:27:24.888Z,3.00
2023-04-11T03:29:52.841Z,4.00
2023-04-11T03:32:20.809Z,3.00
2023-04-11T03:34:48.761Z,4.00
2023-04-11T03:37:16.922Z,2.00
2023-04-11T03:39:44.810Z,3.00
2023-04-11T03:42:14.158Z,3.25
2023-04-11T03:44:42.103Z,2.25
2023-04-11T03:47:10.321Z,2.25
2023-04-11T03:49:38.214Z,2.00
2023-04-11T03:52:07.365Z,3.00
2023-04-11T03:54:35.241Z,3.00
2023-04-11T03:57:04.509Z,3.00
2023-04-11T03:59:33.821Z,3.00
2023-04-11T04:02:01.817Z,2.00
2023-04-11T04:04:32.337Z,2.25
2023-04-11T04:07:01.735Z,2.75
2023-04-11T04:09:30.878Z,2.00
2023-04-11T04:11:58.773Z,3.00
2023-04-11T04:14:26.707Z,2.75
2023-04-11T04:16:56.128Z,2.00
2023-04-11T04:19:24.090Z,3.00
2023-04-11T04:21:52.017Z,3.00
2023-04-11T04:24:20.015Z,2.00
2023-04-11T04:26:49.993Z,2.00
2023-04-11T04:29:18.175Z,2.00
2023-04-11T04:31:52.950Z,3.00
2023-04-11T04:34:24.553Z,3.00
2023-04-11T04:36:56.496Z,2.25
2023-04-11T04:39:25.424Z,2.50
2023-04-11T04:41:58.305Z,2.00
2023-04-11T04:44:26.517Z,2.25
2023-04-11T04:46:54.812Z,3.00
2023-04-11T04:49:24.120Z,2.00
2023-04-11T04:51:52.000Z,2.00
2023-04-11T04:54:20.169Z,2.75
2023-04-11T04:56:50.475Z,2.75
2023-04-11T04:59:18.770Z,2.25
2023-04-11T05:01:46.856Z,2.00
2023-04-11T05:04:15.029Z,2.00
2023-04-11T05:06:44.728Z,2.00
2023-04-11T05:09:12.769Z,2.00
2023-04-11T05:11:40.773Z,2.50
2023-04-11T05:14:08.851Z,2.50
2023-04-11T05:16:37.585Z,2.00
2023-04-11T05:19:05.853Z,2.00
2023-04-11T05:21:33.782Z,2.00
2023-04-11T05:24:04.333Z,2.00
2023-04-11T05:26:32.723Z,2.75
2023-04-11T05:29:00.862Z,3.00
2023-04-11T05:31:28.870Z,6.00
2023-04-11T05:33:58.902Z,7.25
2023-04-11T05:36:28.375Z,8.50
2023-04-11T05:38:56.590Z,8.25
2023-04-11T05:41:25.896Z,9.00
2023-04-11T05:43:54.140Z,8.00
2023-04-11T05:46:22.229Z,11.25
2023-04-11T05:48:50.450Z,11.75
2023-04-11T05:51:18.338Z,9.50
2023-04-11T05:53:46.289Z,11.50
2023-04-11T05:56:14.217Z,8.75
2023-04-11T05:58:44.324Z,9.00
2023-04-11T06:01:14.323Z,9.00
2023-04-11T06:03:42.324Z,10.25
2023-04-11T06:06:10.370Z,9.00
2023-04-11T06:08:38.611Z,9.75
2023-04-11T06:11:06.893Z,8.50
2023-04-11T06:13:34.826Z,10.00
2023-04-11T06:16:04.215Z,9.50
2023-04-11T06:18:32.470Z,9.75
2023-04-11T06:21:00.422Z,12.00
2023-04-11T06:23:28.360Z,10.50
2023-04-11T06:25:56.326Z,8.50
2023-04-11T06:28:24.313Z,9.50
2023-04-11T06:30:52.373Z,8.75
2023-04-11T06:33:21.923Z,8.00
2023-04-11T06:35:49.884Z,8.50
2023-04-11T06:38:18.106Z,7.00
2023-04-11T06:40:45.984Z,7.00
2023-04-11T06:43:13.874Z,8.00
2023-04-11T06:45:41.768Z,8.25
2023-04-11T06:48:09.989Z,8.00
2023-04-11T06:50:41.145Z,8.00
2023-04-11T06:53:09.079Z,6.00
2023-04-11T06:55:36.986Z,8.00
2023-04-11T06:58:05.232Z,6.00
2023-04-11T07:00:33.184Z,7.50
2023-04-11T07:03:01.273Z,8.25
2023-04-11T07:05:29.344Z,7.50
2023-04-11T07:07:59.790Z,7.25
2023-04-11T07:10:27.875Z,8.00
2023-04-11T07:12:55.922Z,8.00
2023-04-11T07:15:23.937Z,8.00
2023-04-11T07:17:52.820Z,7.00
2023-04-11T07:20:21.192Z,6.00
2023-04-11T07:22:49.090Z,7.00
2023-04-11T07:25:18.569Z,6.75
2023-04-11T07:27:46.554Z,6.25
2023-04-11T07:30:15.501Z,6.50
2023-04-11T07:32:43.486Z,6.00
2023-04-11T07:35:11.576Z,7.00
2023-04-11T07:37:40.098Z,5.00
2023-04-11T07:40:13.125Z,6.00
2023-04-11T07:42:42.440Z,5.75
2023-04-11T07:45:13.541Z,6.00
2023-04-11T07:47:41.767Z,5.00
2023-04-11T07:50:10.189Z,6.00
2023-04-11T07:52:38.063Z,5.00
2023-04-11T07:55:06.788Z,6.00
2023-04-11T07:57:34.978Z,5.25
2023-04-11T08:00:04.694Z,5.00
2023-04-11T08:02:33.478Z,5.25
2023-04-11T08:05:01.750Z,4.00
2023-04-11T08:07:30.051Z,4.50
2023-04-11T08:09:57.978Z,5.25
2023-04-11T08:12:25.928Z,4.25
2023-04-11T08:14:53.912Z,4.75
2023-04-11T08:17:28.572Z,6.00
2023-04-11T08:19:57.434Z,4.00
2023-04-11T08:22:25.968Z,5.00
2023-04-11T08:24:53.902Z,4.00
2023-04-11T08:27:21.887Z,4.00
2023-04-11T08:29:49.859Z,4.25
2023-04-11T08:32:17.779Z,5.25
2023-04-11T08:34:47.080Z,3.75
2023-04-11T08:37:15.652Z,4.00
2023-04-11T08:39:43.610Z,3.75
2023-04-11T08:42:22.838Z,4.00
2023-04-11T08:44:53.576Z,4.00
2023-04-11T08:47:21.922Z,3.25
2023-04-11T08:49:51.332Z,4.25
2023-04-11T08:52:19.641Z,4.75
2023-04-11T08:54:47.517Z,3.50
2023-04-11T08:57:25.702Z,3.75
2023-04-11T08:59:53.596Z,4.00
2023-04-11T09:02:21.549Z,3.25
2023-04-11T09:04:51.637Z,3.50
2023-04-11T09:07:19.986Z,3.75
2023-04-11T09:09:47.902Z,3.50
2023-04-11T09:12:15.894Z,3.00
2023-04-11T09:14:43.822Z,3.25
2023-04-11T09:17:13.900Z,2.00
2023-04-11T09:19:43.057Z,3.00
2023-04-11T09:22:15.619Z,2.50
2023-04-11T09:24:43.575Z,3.50
2023-04-11T09:27:12.683Z,3.25
2023-04-11T09:29:41.429Z,2.00
2023-04-11T09:32:09.658Z,2.25
2023-04-11T09:34:42.518Z,3.00
2023-04-11T09:37:12.308Z,2.00
2023-04-11T09:39:40.559Z,4.00
2023-04-11T09:42:26.135Z,2.00
2023-04-11T09:44:54.115Z,2.25
2023-04-11T09:47:22.332Z,2.00
2023-04-11T09:49:50.348Z,2.00
2023-04-11T09:52:19.622Z,2.00
2023-04-11T09:54:47.732Z,2.00
2023-04-11T09:57:16.120Z,2.75
2023-04-11T09:59:44.035Z,3.00
2023-04-11T10:02:12.201Z,2.00
2023-04-11T10:04:40.909Z,2.00
2023-04-11T10:07:12.124Z,2.00
2023-04-11T10:09:42.113Z,2.75
2023-04-11T10:12:10.079Z,2.00
2023-04-11T10:14:47.131Z,2.75
2023-04-11T10:17:20.656Z,2.75
2023-04-11T10:19:51.563Z,2.50
2023-04-11T10:22:56.993Z,2.75
2023-04-11T10:25:27.156Z,2.00
2023-04-11T10:28:00.569Z,2.00
2023-04-11T10:31:01.930Z,2.75
2023-04-11T10:33:29.854Z,2.00
2023-04-11T10:35:58.895Z,2.00
2023-04-11T10:38:47.090Z,3.00
2023-04-11T10:41:32.558Z,2.50
2023-04-11T10:44:14.353Z,2.00
2023-04-11T10:46:46.350Z,2.00
2023-04-11T10:49:14.401Z,2.00
2023-04-11T10:51:42.290Z,2.00
2023-04-11T10:54:25.467Z,2.00
2023-04-11T10:56:58.636Z,2.25
2023-04-11T11:00:00.821Z,2.00
2023-04-11T11:02:39.531Z,2.75
2023-04-11T11:05:18.564Z,2.00
2023-04-11T11:07:50.627Z,3.00
2023-04-11T11:10:36.920Z,2.75
2023-04-11T11:13:06.277Z,2.50
2023-04-11T11:15:37.599Z,1.00
2023-04-11T11:18:10.155Z,2.50
2023-04-11T11:20:38.646Z,2.00
2023-04-11T11:23:07.226Z,2.00
2023-04-11T11:25:35.185Z,2.00
2023-04-11T11:28:03.995Z,1.50
2023-04-11T11:30:33.351Z,2.50
2023-04-11T11:33:01.315Z,2.00
2023-04-11T11:35:29.325Z,2.00
2023-04-11T11:37:57.591Z,3.00
2023-04-11T11:40:25.626Z,2.00
2023-04-11T11:42:53.622Z,2.00
2023-04-11T11:45:22.636Z,1.25
2023-04-11T11:47:52.654Z,2.00
2023-04-11T11:50:27.912Z,2.75
2023-04-11T11:52:56.589Z,2.00
2023-04-11T11:55:34.442Z,2.00
2023-04-11T11:58:03.478Z,2.00
2023-04-11T12:00:32.574Z,2.00
2023-04-11T12:03:03.476Z,1.50
2023-04-11T12:05:32.444Z,2.00
2023-04-11T12:08:01.343Z,2.00
2023-04-11T12:10:36.535Z,2.75
2023-04-11T12:13:08.996Z,2.00
2023-04-11T12:15:36.957Z,2.25
2023-04-11T12:18:07.025Z,2.00
2023-04-11T12:20:35.005Z,3.00
2023-04-11T12:23:03.164Z,1.75
2023-04-11T12:25:31.893Z,3.00
2023-04-11T12:27:59.847Z,2.00
2023-04-11T12:30:29.484Z,2.50
2023-04-11T12:32:57.915Z,3.00
2023-04-11T12:35:27.168Z,1.00
2023-04-11T12:37:55.798Z,2.00
2023-04-11T12:40:23.688Z,2.00
2023-04-11T12:42:56.372Z,2.25
2023-04-11T12:45:25.063Z,2.00
2023-04-11T12:47:53.400Z,2.00
2023-04-11T12:50:23.222Z,2.00
2023-04-11T12:52:52.571Z,2.00
2023-04-11T12:55:21.576Z,1.50
2023-04-11T12:57:50.021Z,2.00
2023-04-11T13:00:18.817Z,2.00
2023-04-11T13:02:46.928Z,2.00
2023-04-11T13:05:15.633Z,2.00
2023-04-11T13:07:45.044Z,2.00
2023-04-11T13:10:15.807Z,2.00
2023-04-11T13:12:45.134Z,2.00
2023-04-11T13:15:13.911Z,2.25
2023-04-11T13:17:42.087Z,2.00
2023-04-11T13:20:11.101Z,2.00
2023-04-11T13:22:39.061Z,2.00
2023-04-11T13:25:08.151Z,1.75
2023-04-11T13:27:39.411Z,1.00
2023-04-11T13:30:11.096Z,2.00
2023-04-11T13:32:39.546Z,3.00
2023-04-11T13:35:08.408Z,1.00
2023-04-11T13:37:36.626Z,2.75
2023-04-11T13:40:08.415Z,2.00
2023-04-11T13:42:37.716Z,2.00
2023-04-11T13:45:08.213Z,2.00
2023-04-11T13:47:38.722Z,3.00
2023-04-11T13:50:08.634Z,6.00
2023-04-11T13:52:36.607Z,7.50
2023-04-11T13:55:04.883Z,10.00
2023-04-11T13:57:33.082Z,15.50
2023-04-11T14:00:05.510Z,15.00
2023-04-11T14:02:33.601Z,15.50
2023-04-11T14:05:01.765Z,12.25
2023-04-11T14:07:29.977Z,14.00
2023-04-11T14:09:57.893Z,13.50
2023-04-11T14:12:25.814Z,12.50
2023-04-11T14:14:53.759Z,12.75
2023-04-11T14:17:23.527Z,11.75
2023-04-11T14:19:51.388Z,11.75
2023-04-11T14:22:19.272Z,11.75
2023-04-11T14:24:47.248Z,10.75
2023-04-11T14:27:15.483Z,20.25
2023-04-11T14:29:43.541Z,17.00
2023-04-11T14:32:11.618Z,12.50
2023-04-11T14:34:41.023Z,12.75
2023-04-11T14:37:09.239Z,13.00
2023-04-11T14:39:39.000Z,12.00
2023-04-11T14:42:07.194Z,12.75
2023-04-11T14:44:35.554Z,10.75
2023-04-11T14:47:04.044Z,12.00
2023-04-11T14:49:31.903Z,12.75
2023-04-11T14:52:01.389Z,9.75
2023-04-11T14:54:29.614Z,9.50
2023-04-11T14:56:57.757Z,9.00
2023-04-11T14:59:26.015Z,8.75
2023-04-11T15:01:53.928Z,8.00
2023-04-11T15:04:22.056Z,9.50
2023-04-11T15:06:50.284Z,6.50
2023-04-11T15:09:21.069Z,9.00
2023-04-11T15:11:49.020Z,6.00
2023-04-11T15:14:16.972Z,6.00
2023-04-11T15:16:45.292Z,7.00
2023-04-11T15:19:13.252Z,7.00
2023-04-11T15:21:41.244Z,6.75
2023-04-11T15:24:09.216Z,6.00
2023-04-11T15:26:38.558Z,5.00
2023-04-11T15:29:06.672Z,4.00
2023-04-11T15:31:36.440Z,6.00
2023-04-11T15:34:04.375Z,4.50
2023-04-11T15:36:34.568Z,5.25
2023-04-11T15:39:02.739Z,6.25
2023-04-11T15:41:31.877Z,6.00
2023-04-11T15:44:01.585Z,5.25
2023-04-11T15:46:30.134Z,5.50
2023-04-11T15:48:58.392Z,6.00
2023-04-11T15:51:27.350Z,5.75
2023-04-11T15:53:55.531Z,4.00
2023-04-11T15:56:23.574Z,6.00
2023-04-11T15:58:51.836Z,5.00
2023-04-11T16:01:22.883Z,5.00
2023-04-11T16:03:51.570Z,5.00
2023-04-11T16:06:20.056Z,4.75
2023-04-11T16:08:49.678Z,5.00
2023-04-11T16:11:17.644Z,5.50
2023-04-11T16:13:47.980Z,5.50
2023-04-11T16:16:16.115Z,4.50
2023-04-11T16:18:46.085Z,4.25
2023-04-11T16:21:14.655Z,3.25
2023-04-11T16:23:42.563Z,4.50
2023-04-11T16:26:10.778Z,4.00
2023-04-11T16:28:38.693Z,5.00
2023-04-11T16:31:07.037Z,3.00
2023-04-11T16:33:34.893Z,5.50
2023-04-11T16:36:04.305Z,4.00
2023-04-11T16:38:32.757Z,5.00
2023-04-11T16:41:01.394Z,4.00
2023-04-11T16:43:30.073Z,4.00
2023-04-11T16:45:58.043Z,4.00
2023-04-11T16:48:26.287Z,4.75
2023-04-11T16:50:54.248Z,4.50
2023-04-11T16:53:23.563Z,4.00
2023-04-11T16:55:52.844Z,5.00
2023-04-11T16:58:21.049Z,4.75
2023-04-11T17:00:49.272Z,4.00
2023-04-11T17:03:18.124Z,4.00
2023-04-11T17:05:46.739Z,4.00
2023-04-11T17:08:15.677Z,4.00
2023-04-11T17:10:45.248Z,5.50
2023-04-11T17:13:14.868Z,5.00
2023-04-11T17:15:42.867Z,3.50
2023-04-11T17:18:11.037Z,3.50
2023-04-11T17:20:39.051Z,4.00
2023-04-11T17:23:07.431Z,4.00
2023-04-11T17:25:36.287Z,4.75
2023-04-11T17:28:05.862Z,4.25
2023-04-11T17:30:33.786Z,4.00
2023-04-11T17:33:01.807Z,5.00
2023-04-11T17:35:29.848Z,4.00
2023-04-11T17:37:57.992Z,3.75
2023-04-11T17:40:25.921Z,4.00
2023-04-11T17:42:53.859Z,4.00
2023-04-11T17:45:23.187Z,3.25
2023-04-11T17:47:51.191Z,4.00
2023-04-11T17:50:20.138Z,3.75
2023-04-11T17:52:48.579Z,3.00
2023-04-11T17:55:17.762Z,3.00
2023-04-11T17:57:46.375Z,4.00
2023-04-11T18:00:19.383Z,4.00
2023-04-11T18:02:50.218Z,4.00
2023-04-11T18:05:23.586Z,4.25
2023-04-11T18:07:52.405Z,4.00
2023-04-11T18:10:22.064Z,5.00
2023-04-11T18:12:51.720Z,4.00
2023-04-11T18:15:19.999Z,3.25
2023-04-11T18:17:51.514Z,3.00
2023-04-11T18:20:19.538Z,4.00
2023-04-11T18:22:48.107Z,5.50
2023-04-11T18:25:15.978Z,4.00
2023-04-11T18:27:43.889Z,4.00
2023-04-11T18:30:12.927Z,4.50
2023-04-11T18:32:46.732Z,4.00
2023-04-11T18:35:18.637Z,4.25
2023-04-11T18:37:47.120Z,4.00
2023-04-11T18:40:15.832Z,3.00
2023-04-11T18:42:45.120Z,3.75
2023-04-11T18:45:13.670Z,4.00
2023-04-11T18:47:42.663Z,4.00
2023-04-11T18:50:11.405Z,8.50
2023-04-11T18:52:40.848Z,11.00
2023-04-11T18:55:10.012Z,12.00
2023-04-11T18:57:38.855Z,18.50
2023-04-11T19:00:16.871Z,18.75
2023-04-11T19:02:46.700Z,24.50
2023-04-11T19:05:15.929Z,19.75
2023-04-11T19:07:45.733Z,22.75
2023-04-11T19:10:14.240Z,27.50
2023-04-11T19:12:42.233Z,23.50
2023-04-11T19:15:13.908Z,26.75
2023-04-11T19:17:42.233Z,27.25
2023-04-11T19:20:13.523Z,31.50
2023-04-11T19:22:41.910Z,28.50
2023-04-11T19:25:11.930Z,29.50
2023-04-11T19:27:41.504Z,32.25
2023-04-11T19:30:11.562Z,33.00
2023-04-11T19:32:42.958Z,31.50
2023-04-11T19:35:11.745Z,34.25
2023-04-11T19:37:40.185Z,35.50
2023-04-11T19:40:10.916Z,36.25
2023-04-11T19:42:40.613Z,36.50
2023-04-11T19:45:11.883Z,34.25
2023-04-11T19:47:40.828Z,37.00
2023-04-11T19:50:11.671Z,34.75
2023-04-11T19:52:39.654Z,33.75
2023-04-11T19:55:09.367Z,35.25
2023-04-11T19:57:38.902Z,33.25
2023-04-11T20:00:12.699Z,33.00
2023-04-11T20:02:44.358Z,33.25
2023-04-11T20:05:12.601Z,32.00
2023-04-11T20:07:42.515Z,34.00
2023-04-11T20:10:11.330Z,33.25
2023-04-11T20:12:39.303Z,33.75
2023-04-11T20:15:12.017Z,33.50
2023-04-11T20:17:40.444Z,32.00
2023-04-11T20:20:11.325Z,36.00
2023-04-11T20:22:40.338Z,33.00
2023-04-11T20:25:11.424Z,34.50
2023-04-11T20:27:39.693Z,35.00
2023-04-11T20:30:13.247Z,33.25
2023-04-11T20:32:41.479Z,33.50
2023-04-11T20:35:11.962Z,34.00
2023-04-11T20:37:41.348Z,32.75
2023-04-11T20:40:10.841Z,33.50
2023-04-11T20:42:39.847Z,32.25
2023-04-11T20:45:13.138Z,31.75
2023-04-11T20:47:41.461Z,32.50
2023-04-11T20:50:10.719Z,32.50
2023-04-11T20:52:41.190Z,33.00
2023-04-11T20:55:10.530Z,31.75
2023-04-11T20:57:38.896Z,32.75
2023-04-11T21:00:14.122Z,36.75
2023-04-11T21:02:44.506Z,38.75
2023-04-11T21:05:13.031Z,38.75
2023-04-11T21:07:42.034Z,42.75
2023-04-11T21:10:10.923Z,40.00
2023-04-11T21:12:39.073Z,41.75
2023-04-11T21:15:14.615Z,42.50
2023-04-11T21:17:45.606Z,40.25
2023-04-11T21:20:19.578Z,43.00
2023-04-11T21:22:48.050Z,43.00
2023-04-11T21:25:16.076Z,44.25
2023-04-11T21:27:44.133Z,41.00
2023-04-11T21:30:13.043Z,43.50
2023-04-11T21:32:41.002Z,40.00
2023-04-11T21:35:11.220Z,41.25
2023-04-11T21:37:39.479Z,42.00
2023-04-11T21:40:08.648Z,41.00
2023-04-11T21:42:36.712Z,41.50
2023-04-11T21:45:04.975Z,39.75
2023-04-11T21:47:33.319Z,40.00
2023-04-11T21:50:01.325Z,41.00
2023-04-11T21:52:30.627Z,38.25
2023-04-11T21:54:58.522Z,37.75
2023-04-11T21:57:27.151Z,36.75
2023-04-11T21:59:55.151Z,36.75
2023-04-11T22:02:23.261Z,36.75
2023-04-11T22:05:05.748Z,37.25
2023-04-11T22:07:39.504Z,35.75
2023-04-11T22:10:10.550Z,36.00
2023-04-11T22:12:38.593Z,35.50
2023-04-11T22:15:12.972Z,37.00
2023-04-11T22:17:42.223Z,33.50
2023-04-11T22:20:11.555Z,35.00
2023-04-11T22:22:40.911Z,34.75
2023-04-11T22:25:09.949Z,34.75
2023-04-11T22:27:38.484Z,34.00
2023-04-11T22:30:11.156Z,32.00
2023-04-11T22:32:39.146Z,32.50
2023-04-11T22:35:08.266Z,31.75
2023-04-11T22:37:36.933Z,33.00
2023-04-11T22:40:08.158Z,32.25
2023-04-11T22:42:36.907Z,30.50
2023-04-11T22:45:05.123Z,32.00
2023-04-11T22:47:34.540Z,30.25
2023-04-11T22:50:03.544Z,29.75
2023-04-11T22:52:31.654Z,29.75
2023-04-11T22:54:59.599Z,30.00
2023-04-11T22:57:29.295Z,27.50
2023-04-11T22:59:57.171Z,26.25
2023-04-11T23:02:25.370Z,28.75
2023-04-11T23:04:53.561Z,26.00
2023-04-11T23:07:22.204Z,26.75
2023-04-11T23:09:50.133Z,26.50
2023-04-11T23:12:17.991Z,25.00
2023-04-11T23:14:47.519Z,26.75
2023-04-11T23:17:15.754Z,23.25
2023-04-11T23:19:44.128Z,27.25
2023-04-11T23:22:12.087Z,26.00
2023-04-11T23:24:40.105Z,25.00
2023-04-11T23:27:08.572Z,21.50
2023-04-11T23:29:37.094Z,22.75
2023-04-11T23:32:06.783Z,22.50
2023-04-11T23:34:35.787Z,21.25
2023-04-11T23:37:04.074Z,20.00
2023-04-11T23:39:31.992Z,21.00
2023-04-11T23:41:59.924Z,20.00
2023-04-11T23:44:27.829Z,23.00
2023-04-11T23:46:56.251Z,20.25
2023-04-11T23:49:25.831Z,18.75
2023-04-11T23:51:53.735Z,18.00
2023-04-11T23:54:21.639Z,18.00
2023-04-11T23:56:49.875Z,19.00
2023-04-11T23:59:17.765Z,17.25
